Adobe Reservoir




Date Battery Voltage (V) Panel Temperature (degF) Reservoir Height (ft) Reservoir Acre Feet (AF) Blue Cut-Clipper-Western Meter (cfs) Hunter Plant Meter (cfs) Air Temperature (degF) Blue Cut-Clipper-Western Meter GPM (gpm) Hunter Plant Meter GPM (gpm) Reservoir Elevation (ft) Battery Voltage 24 (V) Hunter Plant Meter Total Gallons (gal) Pond Battery Voltage (V) Pond 24V Battery Voltage (V) Pipe PSI (PSI) K Gallons Total (gal) Signal Strength (db) Call Fails (ea) Total Fails (ea) Tries (ea) Water Level Sensor Upper Mammoth Meter (gpm) Upper Mammoth Meter (cfs)
04/01/2017 12.3 15.7 95.3 968 0.0 3.0 48 0 1,345 5,995.3 28.0 12.2 26.8 26.1 4,214,306.00 0.00 0.00 0.00
04/02/2017 12.3 16.0 95.2 960 0.0 3.0 48 0 1,343 5,995.2 28.2 12.2 26.6 26.0 4,216,466.00 0.00 0.00 0.00
04/03/2017 12.3 14.6 95.1 955 0.0 3.0 48 0 1,341 5,995.1 28.1 12.2 26.7 26.0 4,218,626.00 0.00 0.00 0.00
04/04/2017 12.3 13.6 94.9 943 13.9 3.0 48 6,234 1,341 5,994.9 28.4 12.2 26.9 20.5 4,220,786.00 0.00 32.36 0.07
04/05/2017 12.3 14.2 94.6 917 15.0 3.0 48 6,746 1,342 5,994.6 27.9 12.2 26.9 19.8 4,222,945.00 0.00 0.21 0.00
04/06/2017 12.3 16.2 94.4 905 0.5 3.0 48 220 1,348 5,994.4 28.2 12.2 26.8 25.7 4,225,105.00 0.00 0.00 0.00
04/07/2017 12.3 16.8 94.3 897 0.7 3.0 49 295 1,350 5,994.3 28.0 12.2 26.3 25.7 4,227,265.00 0.00 0.00 0.00
04/08/2017 12.3 16.9 94.2 890 1.2 3.0 49 552 1,349 5,994.2 28.1 12.2 26.6 25.6 4,229,425.00 0.00 0.00 0.00
04/09/2017 12.3 14.4 94.1 879 0.9 3.0 49 416 1,348 5,994.1 28.0 12.2 26.9 25.5 4,231,585.00 0.00 0.00 0.00
04/10/2017 12.3 13.9 93.9 870 0.1 3.0 48 28 1,350 5,993.9 27.6 12.2 26.9 25.5 4,233,745.00 0.00 0.00 0.00
04/11/2017 12.3 15.4 93.8 861 0.1 3.0 49 41 1,351 5,993.8 27.7 12.2 26.7 25.5 4,235,905.00 0.00 0.00 0.00
04/12/2017 12.3 17.6 93.7 854 3.5 3.0 49 1,555 1,350 5,993.7 27.7 12.2 26.7 25.4 4,238,065.00 0.00 6.32 0.01
04/13/2017 12.3 19.0 93.4 835 5.4 3.0 50 2,427 1,348 5,993.4 27.7 12.2 26.7 25.2 4,240,225.00 0.00 337.22 0.75
04/14/2017 12.3 19.2 93.2 818 5.6 3.0 50 2,531 1,346 5,993.2 27.7 12.2 26.7 25.1 4,242,385.00 0.00 381.67 0.85
04/15/2017 12.3 17.6 93.2 820 10.7 3.0 51 4,822 1,344 5,993.2 28.1 12.2 26.7 25.0 4,244,545.00 0.00 590.14 1.32
04/16/2017 12.3 18.5 93.3 825 10.9 3.0 51 4,873 1,346 5,993.3 28.2 12.2 26.7 25.1 4,246,705.00 0.00 721.88 1.61
04/17/2017 12.3 19.3 93.3 828 15.9 3.0 51 7,141 1,344 5,993.3 28.3 12.2 26.6 24.9 4,248,865.00 0.00 1,384.72 3.09
04/18/2017 12.3 20.0 93.2 817 18.4 3.0 52 8,259 1,343 5,993.2 28.2 12.2 26.4 24.8 4,251,025.00 0.00 1,425.49 3.18
04/19/2017 12.3 18.3 93.1 815 20.0 3.0 52 8,959 1,341 5,993.1 28.3 12.2 26.7 24.7 4,253,185.00 0.00 2,052.43 4.57
04/20/2017 12.3 17.0 93.1 816 20.9 3.0 52 9,364 1,340 5,993.1 28.4 12.2 26.7 24.6 4,255,345.00 0.00 1,859.86 4.14
04/21/2017 12.3 15.8 93.5 839 20.1 3.0 51 9,009 1,341 5,993.5 28.4 12.2 26.8 24.8 4,257,505.00 0.00 1,720.83 3.83
04/22/2017 12.3 16.1 93.9 866 20.8 3.0 51 9,330 1,343 5,993.9 28.1 12.2 26.8 24.9 4,259,665.00 0.00 2,014.44 4.49
04/23/2017 12.3 17.9 94.2 888 20.8 3.0 51 9,334 1,346 5,994.2 27.6 12.2 26.6 25.0 4,261,825.00 0.00 2,429.93 5.41
04/24/2017 12.3 16.8 94.5 910 22.4 3.0 51 10,055 1,350 5,994.5 27.6 12.2 26.4 25.1 4,263,985.00 0.00 2,456.53 5.47
04/25/2017 12.3 14.7 94.9 938 23.8 3.0 51 10,676 1,350 5,994.9 28.2 12.2 26.7 25.1 4,266,145.00 0.00 2,530.28 5.64
04/26/2017 12.3 14.7 95.4 974 23.8 3.0 50 10,675 1,352 5,995.4 28.7 12.2 26.6 25.2 4,268,305.00 0.00 2,533.33 5.64
04/27/2017 12.3 14.4 95.6 992 19.4 3.0 50 8,722 1,354 5,995.6 28.5 12.2 26.8 25.6 4,270,465.00 66.04 1,760.35 3.92
04/28/2017 12.3 12.4 95.8 1,007 16.5 3.0 49 7,421 1,353 5,995.8 28.6 12.3 26.8 25.8 4,272,625.00 0.00 1,000.14 2.23
04/29/2017 12.3 13.3 96.0 1,020 18.0 3.0 49 8,080 1,352 5,996.0 28.6 12.2 26.9 25.8 4,274,785.00 0.00 1,362.36 3.04
04/30/2017 12.3 14.5 96.1 1,030 23.2 3.0 49 10,427 1,353 5,996.1 28.7 12.2 26.8 25.7 4,276,945.00 0.00 1,087.64 2.42
Average 11.8 3.0 2.06
Maximum 23.8 3.0 5.64
Minimum 0.0 3.0 0.00
Total Volume (AF) 699.0 178.5 122.31